Time;durP1;ratioP1;P1;durP2;ratioP2;P2;SDS_P1;SDS_P2;PMS_P1;PMS_P2;Temp;Humidity;BMP_temperature;BMP_pressure;BME280_temperature;BME280_humidity;BME280_pressure;Samples;Min_cycle;Max_cycle;Signal;HPM_P1;HPM_P2
2022/12/20 00:00:48;;;;;;;2.70;1.38;;;;;;;;;;5032582;28;20018;-88
2022/12/20 00:03:13;;;;;;;3.05;1.30;;;;;;;;;;5032430;28;20022;-88
2022/12/20 00:05:39;;;;;;;3.55;1.70;;;;;;;;;;5032390;28;20472;-87
2022/12/20 00:08:04;;;;;;;3.38;1.60;;;;;;;;;;5033786;28;20029;-88
2022/12/20 00:10:30;;;;;;;2.63;1.58;;;;;;;;;;5030955;28;20029;-88
2022/12/20 00:12:55;;;;;;;3.58;1.98;;;;;;;;;;5031906;28;20041;-88
2022/12/20 00:15:20;;;;;;;3.97;1.67;;;;;;;;;;5033166;28;20078;-87
2022/12/20 00:17:45;;;;;;;2.58;1.48;;;;;;;;;;5032394;28;20025;-87
2022/12/20 00:20:11;;;;;;;3.45;1.45;;;;;;;;;;5033664;28;20021;-88
2022/12/20 00:22:36;;;;;;;3.13;1.50;;;;;;;;;;5031025;28;20025;-87
2022/12/20 00:25:01;;;;;;;3.30;1.58;;;;;;;;;;5031964;28;20473;-88
2022/12/20 00:27:27;;;;;;;4.13;1.13;;;;;;;;;;5033253;28;20376;-87
2022/12/20 00:29:52;;;;;;;2.65;1.45;;;;;;;;;;5048565;28;20025;-88
2022/12/20 00:32:17;;;;;;;5.90;1.67;;;;;;;;;;5033314;28;20045;-88
2022/12/20 00:34:42;;;;;;;3.42;1.60;;;;;;;;;;5047633;28;20080;-87
2022/12/20 00:37:07;;;;;;;4.25;1.70;;;;;;;;;;5048157;28;20009;-88
2022/12/20 00:39:33;;;;;;;6.43;1.40;;;;;;;;;;5031806;28;20021;-88
2022/12/20 00:41:58;;;;;;;3.72;1.63;;;;;;;;;;5033211;28;20017;-88
2022/12/20 00:44:23;;;;;;;4.20;1.70;;;;;;;;;;5031776;28;20435;-88
2022/12/20 00:46:48;;;;;;;3.53;1.30;;;;;;;;;;5047901;28;20433;-88
2022/12/20 00:49:15;;;;;;;6.20;1.85;;;;;;;;;;5031583;28;20025;-88
2022/12/20 00:51:40;;;;;;;5.40;1.85;;;;;;;;;;5048207;28;20029;-88
2022/12/20 00:54:05;;;;;;;4.88;2.00;;;;;;;;;;5033013;28;20120;-88
2022/12/20 00:56:31;;;;;;;5.13;2.03;;;;;;;;;;5031812;28;20021;-89
2022/12/20 00:58:57;;;;;;;5.05;1.83;;;;;;;;;;5047049;28;20017;-89
2022/12/20 01:01:23;;;;;;;8.48;2.08;;;;;;;;;;5048586;28;20040;-89
2022/12/20 01:03:49;;;;;;;3.90;1.92;;;;;;;;;;5048449;28;20112;-89
2022/12/20 01:06:14;;;;;;;5.28;2.53;;;;;;;;;;5031431;28;20049;-89
2022/12/20 01:08:39;;;;;;;6.85;2.17;;;;;;;;;;5048459;28;20048;-89
2022/12/20 01:11:06;;;;;;;4.85;1.80;;;;;;;;;;5046026;28;20469;-90
2022/12/20 01:13:32;;;;;;;3.47;1.90;;;;;;;;;;5031630;28;20031;-89
2022/12/20 01:16:03;;;;;;;5.45;1.90;;;;;;;;;;5032808;28;20092;-89
2022/12/20 01:18:28;;;;;;;4.90;1.90;;;;;;;;;;5048094;28;20033;-89
2022/12/20 01:20:59;;;;;;;4.85;1.75;;;;;;;;;;5047030;28;20040;-89
2022/12/20 01:23:25;;;;;;;5.25;1.60;;;;;;;;;;5041457;28;20045;-90
2022/12/20 01:25:50;;;;;;;2.97;1.67;;;;;;;;;;5031707;28;20036;-89
2022/12/20 01:28:15;;;;;;;3.20;1.45;;;;;;;;;;5047884;28;20013;-89
2022/12/20 01:30:40;;;;;;;2.67;1.67;;;;;;;;;;5048076;28;20330;-89
2022/12/20 01:33:06;;;;;;;3.17;1.60;;;;;;;;;;5030852;28;20095;-89
2022/12/20 01:35:31;;;;;;;3.75;1.55;;;;;;;;;;5031106;28;20049;-89
2022/12/20 01:37:56;;;;;;;3.95;1.98;;;;;;;;;;5048337;28;20017;-90
2022/12/20 01:40:21;;;;;;;3.67;1.70;;;;;;;;;;5032780;28;20021;-90
2022/12/20 01:42:46;;;;;;;2.35;1.48;;;;;;;;;;5031423;28;20041;-89
2022/12/20 01:45:13;;;;;;;4.72;2.10;;;;;;;;;;5030270;28;20037;-89
2022/12/20 01:47:39;;;;;;;3.90;1.40;;;;;;;;;;5032418;28;20072;-89
2022/12/20 01:50:04;;;;;;;3.05;1.40;;;;;;;;;;5032533;28;20022;-89
2022/12/20 01:52:33;;;;;;;2.85;1.70;;;;;;;;;;5047294;28;20109;-89
2022/12/20 01:55:05;;;;;;;4.28;2.00;;;;;;;;;;5047675;28;20033;-89
2022/12/20 01:57:41;;;;;;;4.93;1.83;;;;;;;;;;5033467;28;20021;-89
2022/12/20 02:00:08;;;;;;;3.33;1.75;;;;;;;;;;5051974;28;20021;-88
2022/12/20 02:02:34;;;;;;;3.17;1.60;;;;;;;;;;5051531;28;20451;-88
2022/12/20 02:04:59;;;;;;;2.67;1.30;;;;;;;;;;5034830;28;20033;-89
2022/12/20 02:07:26;;;;;;;5.20;1.75;;;;;;;;;;5037179;28;20026;-88
2022/12/20 02:09:52;;;;;;;2.80;1.77;;;;;;;;;;5050772;28;20025;-88
2022/12/20 02:12:21;;;;;;;3.03;1.60;;;;;;;;;;5051730;28;20090;-88
2022/12/20 02:15:05;;;;;;;4.88;1.80;;;;;;;;;;5051263;28;20477;-88
2022/12/20 02:17:36;;;;;;;9.57;2.22;;;;;;;;;;5035820;28;20021;-89
2022/12/20 02:20:02;;;;;;;5.22;2.00;;;;;;;;;;5022654;28;20020;-89
2022/12/20 02:22:30;;;;;;;3.78;1.80;;;;;;;;;;5047167;28;20017;-90
2022/12/20 02:25:04;;;;;;;4.45;1.80;;;;;;;;;;5051267;28;20028;-89
2022/12/20 02:27:56;;;;;;;2.97;1.73;;;;;;;;;;5049928;28;20036;-89
2022/12/20 02:30:22;;;;;;;4.50;1.80;;;;;;;;;;5035059;28;20087;-88
2022/12/20 02:32:58;;;;;;;3.05;1.67;;;;;;;;;;5033645;28;20022;-88
2022/12/20 02:35:25;;;;;;;3.13;1.40;;;;;;;;;;5033882;28;20048;-88
2022/12/20 02:37:52;;;;;;;3.88;2.20;;;;;;;;;;5035641;28;20022;-88
2022/12/20 02:40:22;;;;;;;3.58;1.83;;;;;;;;;;5050826;28;20018;-88
2022/12/20 02:42:50;;;;;;;4.70;1.70;;;;;;;;;;5050678;28;20037;-88
2022/12/20 02:45:18;;;;;;;3.60;1.67;;;;;;;;;;5033288;28;20426;-88
2022/12/20 02:47:46;;;;;;;4.45;2.38;;;;;;;;;;5050827;28;20072;-88
2022/12/20 02:50:12;;;;;;;3.78;1.92;;;;;;;;;;5050818;28;20022;-88
2022/12/20 02:52:37;;;;;;;3.95;1.92;;;;;;;;;;5050278;28;20021;-88
2022/12/20 02:55:03;;;;;;;4.43;1.67;;;;;;;;;;5050315;28;20026;-88
2022/12/20 02:57:43;;;;;;;3.25;1.55;;;;;;;;;;5032611;28;20032;-88
2022/12/20 03:00:17;;;;;;;5.03;1.75;;;;;;;;;;5050328;28;20017;-87
2022/12/20 03:05:27;;;;;;;4.82;1.80;;;;;;;;;;5035225;28;20119;-87
2022/12/20 03:07:52;;;;;;;6.45;1.83;;;;;;;;;;5049177;28;20017;-88
2022/12/20 03:10:18;;;;;;;3.53;1.70;;;;;;;;;;5048967;28;20063;-87
2022/12/20 03:12:43;;;;;;;3.08;1.60;;;;;;;;;;5049705;28;20025;-87
2022/12/20 03:15:09;;;;;;;3.05;1.92;;;;;;;;;;5050287;28;20022;-87
2022/12/20 03:17:34;;;;;;;5.00;2.08;;;;;;;;;;5049385;28;20041;-87
2022/12/20 03:19:59;;;;;;;6.53;1.88;;;;;;;;;;5050386;28;20490;-87
2022/12/20 03:22:25;;;;;;;6.25;1.80;;;;;;;;;;5032477;28;20026;-87
2022/12/20 03:24:50;;;;;;;3.97;1.80;;;;;;;;;;5033184;28;20449;-87
2022/12/20 03:27:15;;;;;;;4.03;1.80;;;;;;;;;;5034536;28;20453;-87
2022/12/20 03:29:40;;;;;;;2.95;1.80;;;;;;;;;;5048036;28;20025;-87
2022/12/20 03:32:06;;;;;;;2.95;1.58;;;;;;;;;;5022861;28;20443;-87
2022/12/20 03:34:31;;;;;;;6.85;1.70;;;;;;;;;;5043587;28;20033;-87
2022/12/20 03:36:56;;;;;;;5.18;1.90;;;;;;;;;;5033869;28;20062;-86
2022/12/20 03:39:21;;;;;;;6.30;1.70;;;;;;;;;;5034096;28;20029;-87
2022/12/20 03:41:46;;;;;;;4.95;2.00;;;;;;;;;;5049324;28;20025;-88
2022/12/20 03:44:12;;;;;;;6.50;1.70;;;;;;;;;;5049650;28;20033;-87
2022/12/20 03:46:37;;;;;;;3.05;1.25;;;;;;;;;;5041929;28;20125;-87
2022/12/20 03:49:02;;;;;;;2.45;1.38;;;;;;;;;;5029689;28;20026;-88
2022/12/20 03:51:27;;;;;;;3.85;1.48;;;;;;;;;;5044585;28;20071;-88
2022/12/20 03:53:52;;;;;;;4.20;1.58;;;;;;;;;;5040040;28;20116;-88
2022/12/20 03:56:18;;;;;;;5.80;1.77;;;;;;;;;;5032388;28;20063;-86
2022/12/20 03:58:43;;;;;;;2.75;1.55;;;;;;;;;;5048511;28;20017;-88
2022/12/20 04:01:15;;;;;;;3.72;1.90;;;;;;;;;;5032390;28;20078;-88
2022/12/20 04:03:41;;;;;;;4.93;1.35;;;;;;;;;;5033933;28;20025;-88
2022/12/20 04:06:06;;;;;;;3.88;1.27;;;;;;;;;;5033879;28;20024;-87
2022/12/20 04:08:31;;;;;;;3.92;1.70;;;;;;;;;;5032327;28;20017;-88
2022/12/20 04:11:14;;;;;;;4.32;1.30;;;;;;;;;;5047764;28;20025;-87
2022/12/20 04:13:40;;;;;;;4.85;1.95;;;;;;;;;;5048595;28;20017;-87
2022/12/20 04:16:05;;;;;;;3.70;1.92;;;;;;;;;;5019378;28;20057;-88
2022/12/20 04:18:30;;;;;;;1.13;0.57;;;;;;;;;;5033645;28;20053;-89
2022/12/20 04:20:58;;;;;;;2.63;1.15;;;;;;;;;;5031783;28;20024;-88
2022/12/20 04:23:23;;;;;;;3.90;1.90;;;;;;;;;;5048545;28;20022;-88
2022/12/20 04:25:48;;;;;;;5.35;1.95;;;;;;;;;;5049121;28;20021;-89
2022/12/20 04:28:14;;;;;;;3.75;1.98;;;;;;;;;;5049349;28;20076;-89
2022/12/20 04:30:39;;;;;;;6.35;1.95;;;;;;;;;;5032631;28;20025;-89
2022/12/20 04:33:04;;;;;;;4.97;2.00;;;;;;;;;;5048298;28;20037;-89
2022/12/20 04:35:29;;;;;;;4.07;1.73;;;;;;;;;;5032052;28;20037;-89
2022/12/20 04:37:54;;;;;;;2.65;1.70;;;;;;;;;;5041522;28;20018;-89
2022/12/20 04:40:20;;;;;;;2.90;1.48;;;;;;;;;;5026879;28;20071;-89
2022/12/20 04:42:45;;;;;;;4.40;1.45;;;;;;;;;;5048493;28;20024;-89
2022/12/20 04:45:10;;;;;;;5.55;1.90;;;;;;;;;;5047806;28;20025;-89
2022/12/20 04:47:35;;;;;;;3.88;1.50;;;;;;;;;;5048761;28;20021;-89
2022/12/20 04:50:00;;;;;;;4.20;1.73;;;;;;;;;;5048844;28;20040;-89
2022/12/20 04:55:09;;;;;;;6.05;1.73;;;;;;;;;;5033513;28;20024;-89
2022/12/20 04:57:34;;;;;;;2.95;1.30;;;;;;;;;;5047475;28;20469;-89
2022/12/20 05:00:00;;;;;;;4.18;1.52;;;;;;;;;;5031777;28;20025;-89
2022/12/20 05:02:25;;;;;;;4.80;1.05;;;;;;;;;;5032932;28;20016;-89
2022/12/20 05:04:50;;;;;;;2.00;1.27;;;;;;;;;;5031648;28;20028;-89
2022/12/20 05:07:15;;;;;;;3.38;1.50;;;;;;;;;;5047856;28;20034;-89
2022/12/20 05:09:41;;;;;;;5.97;1.27;;;;;;;;;;5047274;28;20435;-89
2022/12/20 05:12:06;;;;;;;3.67;1.30;;;;;;;;;;5047820;28;20021;-89
2022/12/20 05:14:31;;;;;;;4.75;1.55;;;;;;;;;;5031325;28;20025;-89
2022/12/20 05:16:56;;;;;;;3.92;1.27;;;;;;;;;;5031290;28;20051;-89
2022/12/20 05:19:21;;;;;;;2.85;1.40;;;;;;;;;;5048278;28;20017;-88
2022/12/20 05:27:14;;;;;;;4.05;1.40;;;;;;;;;;5020309;28;20032;-88
2022/12/20 05:29:39;;;;;;;2.00;1.23;;;;;;;;;;5047628;28;20029;-88
2022/12/20 05:32:05;;;;;;;2.80;1.30;;;;;;;;;;5046212;28;20118;-88
2022/12/20 05:34:30;;;;;;;5.95;1.60;;;;;;;;;;5032118;28;20025;-87
2022/12/20 05:36:55;;;;;;;3.75;1.33;;;;;;;;;;5046992;28;20029;-87
2022/12/20 05:39:20;;;;;;;3.45;1.55;;;;;;;;;;5032403;28;20018;-87
2022/12/20 05:41:46;;;;;;;4.95;1.30;;;;;;;;;;5047485;28;20025;-87
2022/12/20 05:44:11;;;;;;;4.10;1.58;;;;;;;;;;5032097;28;20453;-88
2022/12/20 05:46:36;;;;;;;2.60;1.20;;;;;;;;;;5037488;28;20104;-87
2022/12/20 05:49:02;;;;;;;3.55;1.30;;;;;;;;;;5047461;28;20453;-88
2022/12/20 05:51:27;;;;;;;5.70;1.70;;;;;;;;;;5046930;28;20029;-88
2022/12/20 05:53:52;;;;;;;3.42;1.38;;;;;;;;;;5047356;28;20108;-88
2022/12/20 05:56:17;;;;;;;2.25;1.17;;;;;;;;;;5046587;28;20009;-87
2022/12/20 05:58:43;;;;;;;3.05;1.20;;;;;;;;;;5030773;28;20558;-88
2022/12/20 06:01:09;;;;;;;4.82;1.20;;;;;;;;;;5030721;28;20437;-88
2022/12/20 06:03:35;;;;;;;1.48;0.80;;;;;;;;;;5032284;28;20025;-88
2022/12/20 06:06:00;;;;;;;4.80;1.17;;;;;;;;;;5046971;28;20025;-88
2022/12/20 06:08:26;;;;;;;4.43;0.90;;;;;;;;;;5046583;28;20100;-88
2022/12/20 06:10:51;;;;;;;3.72;1.23;;;;;;;;;;5030553;28;20024;-87
2022/12/20 06:13:16;;;;;;;5.38;1.48;;;;;;;;;;5047022;28;20060;-88
2022/12/20 06:15:42;;;;;;;4.32;1.38;;;;;;;;;;5031973;28;20049;-88
2022/12/20 06:18:07;;;;;;;2.05;0.82;;;;;;;;;;5045798;28;20029;-88
2022/12/20 06:20:35;;;;;;;3.08;1.30;;;;;;;;;;5046452;28;20034;-87
2022/12/20 06:23:01;;;;;;;2.58;1.38;;;;;;;;;;5047102;28;20079;-88
2022/12/20 06:25:27;;;;;;;5.65;1.35;;;;;;;;;;5031834;28;20022;-89
2022/12/20 06:27:53;;;;;;;3.20;1.20;;;;;;;;;;5031983;28;20571;-87
2022/12/20 06:30:19;;;;;;;2.22;1.13;;;;;;;;;;5045888;28;20053;-88
2022/12/20 06:32:44;;;;;;;2.03;1.30;;;;;;;;;;5047100;28;20453;-88
2022/12/20 06:35:09;;;;;;;2.60;1.30;;;;;;;;;;5047028;28;20037;-87
2022/12/20 06:37:35;;;;;;;5.55;1.20;;;;;;;;;;5042696;28;20013;-88
2022/12/20 06:40:01;;;;;;;4.63;1.40;;;;;;;;;;5031732;28;20017;-88
2022/12/20 06:42:26;;;;;;;2.17;1.00;;;;;;;;;;5031063;28;20022;-88
2022/12/20 06:44:51;;;;;;;2.38;1.00;;;;;;;;;;5047391;28;20033;-88
2022/12/20 06:47:16;;;;;;;3.17;1.25;;;;;;;;;;5045025;28;20029;-88
2022/12/20 06:49:41;;;;;;;6.00;1.23;;;;;;;;;;5035524;28;20338;-87
2022/12/20 06:52:06;;;;;;;4.25;1.20;;;;;;;;;;5049933;28;20014;-88
2022/12/20 06:54:32;;;;;;;3.40;1.02;;;;;;;;;;5033937;28;20109;-88
2022/12/20 06:56:57;;;;;;;3.45;1.20;;;;;;;;;;5050397;28;20018;-88
2022/12/20 06:59:22;;;;;;;8.68;1.42;;;;;;;;;;5050603;28;20163;-88
2022/12/20 07:01:47;;;;;;;1.77;1.10;;;;;;;;;;5050514;28;20109;-87
2022/12/20 07:04:12;;;;;;;2.80;1.50;;;;;;;;;;5046159;28;20112;-88
2022/12/20 07:06:38;;;;;;;3.05;1.17;;;;;;;;;;5032745;28;20116;-88
2022/12/20 07:09:03;;;;;;;4.78;1.00;;;;;;;;;;5049767;28;20091;-89
2022/12/20 07:11:28;;;;;;;2.95;1.20;;;;;;;;;;5034210;28;20017;-88
2022/12/20 07:13:54;;;;;;;4.75;1.30;;;;;;;;;;5050071;28;20422;-88
2022/12/20 07:16:19;;;;;;;5.88;1.45;;;;;;;;;;5033917;28;20013;-89
2022/12/20 07:18:48;;;;;;;5.90;1.30;;;;;;;;;;5033692;28;20025;-88
2022/12/20 07:21:15;;;;;;;2.53;1.30;;;;;;;;;;5033015;28;20389;-88
2022/12/20 07:23:40;;;;;;;4.47;1.30;;;;;;;;;;5021267;28;20028;-89
2022/12/20 07:26:06;;;;;;;3.58;1.27;;;;;;;;;;5044512;28;20018;-89
2022/12/20 07:28:32;;;;;;;3.95;1.35;;;;;;;;;;5039149;28;20022;-89
2022/12/20 07:30:59;;;;;;;1.90;1.27;;;;;;;;;;5050167;28;20036;-89
2022/12/20 07:33:24;;;;;;;2.88;1.40;;;;;;;;;;5033429;28;20104;-89
2022/12/20 07:35:50;;;;;;;3.08;1.88;;;;;;;;;;5033239;28;20163;-89
2022/12/20 07:38:16;;;;;;;7.10;1.98;;;;;;;;;;5043024;28;20483;-90
2022/12/20 07:40:42;;;;;;;3.28;1.40;;;;;;;;;;5037042;28;20022;-89
2022/12/20 07:43:07;;;;;;;4.05;1.38;;;;;;;;;;5033604;28;20005;-90
2022/12/20 07:45:33;;;;;;;2.00;1.05;;;;;;;;;;5050201;28;20029;-90
2022/12/20 07:47:58;;;;;;;2.08;1.33;;;;;;;;;;5044950;28;20014;-89
2022/12/20 07:50:23;;;;;;;5.78;1.02;;;;;;;;;;5048513;28;20436;-90
2022/12/20 07:52:49;;;;;;;3.03;1.40;;;;;;;;;;5033139;28;20010;-90
2022/12/20 07:55:14;;;;;;;8.38;1.63;;;;;;;;;;5049231;28;20515;-90
2022/12/20 07:57:42;;;;;;;7.53;1.80;;;;;;;;;;5029952;28;20033;-90
2022/12/20 08:00:08;;;;;;;6.18;1.30;;;;;;;;;;5036082;28;20104;-90
2022/12/20 08:02:46;;;;;;;4.10;1.30;;;;;;;;;;5045598;28;20453;-88
2022/12/20 08:05:11;;;;;;;5.22;1.42;;;;;;;;;;5038509;28;20442;-89
2022/12/20 08:07:38;;;;;;;3.60;1.48;;;;;;;;;;5030072;28;20045;-89
2022/12/20 08:10:04;;;;;;;2.25;1.30;;;;;;;;;;5046536;28;20041;-89
2022/12/20 08:12:30;;;;;;;3.50;1.60;;;;;;;;;;5047108;28;20048;-89
2022/12/20 08:14:56;;;;;;;4.90;1.70;;;;;;;;;;5028944;28;20572;-90
2022/12/20 08:17:22;;;;;;;3.83;1.17;;;;;;;;;;5028626;28;20168;-90
2022/12/20 08:19:49;;;;;;;3.42;1.40;;;;;;;;;;5030684;28;20464;-90
2022/12/20 08:22:14;;;;;;;3.88;1.20;;;;;;;;;;5030674;28;20021;-91
2022/12/20 08:24:40;;;;;;;2.70;1.35;;;;;;;;;;5042499;28;20034;-89
2022/12/20 08:27:05;;;;;;;2.58;1.30;;;;;;;;;;5032007;28;20055;-91
2022/12/20 08:29:30;;;;;;;3.28;1.45;;;;;;;;;;5031419;28;20137;-90
2022/12/20 08:31:55;;;;;;;2.78;1.52;;;;;;;;;;5027591;28;20025;-92
2022/12/20 08:34:21;;;;;;;3.95;1.40;;;;;;;;;;5042940;28;20029;-89
2022/12/20 08:36:46;;;;;;;5.78;1.67;;;;;;;;;;5027668;28;20048;-89
2022/12/20 08:39:11;;;;;;;3.50;1.48;;;;;;;;;;5039744;28;20014;-91
2022/12/20 08:41:36;;;;;;;2.78;1.27;;;;;;;;;;5032294;28;20374;-91
2022/12/20 08:44:02;;;;;;;3.78;1.50;;;;;;;;;;5029769;28;20029;-90
2022/12/20 08:46:28;;;;;;;6.75;1.40;;;;;;;;;;5031227;28;20021;-89
2022/12/20 08:48:53;;;;;;;1.88;1.10;;;;;;;;;;5022781;28;20025;-91
2022/12/20 08:51:18;;;;;;;4.05;1.50;;;;;;;;;;5045490;28;20097;-89
2022/12/20 08:53:43;;;;;;;1.67;1.00;;;;;;;;;;5028088;28;20018;-90
2022/12/20 08:56:13;;;;;;;4.00;1.42;;;;;;;;;;5043645;28;20054;-90
2022/12/20 08:58:39;;;;;;;2.75;1.40;;;;;;;;;;5027628;28;20018;-91
2022/12/20 09:01:05;;;;;;;3.08;1.45;;;;;;;;;;5035370;28;20020;-92
2022/12/20 09:03:30;;;;;;;4.40;1.50;;;;;;;;;;5035571;28;20032;-92
2022/12/20 09:05:56;;;;;;;2.92;1.17;;;;;;;;;;5033019;28;20025;-89
2022/12/20 09:08:21;;;;;;;3.40;1.45;;;;;;;;;;5043530;28;20021;-88
2022/12/20 09:10:46;;;;;;;2.65;1.20;;;;;;;;;;5025729;28;20041;-87
2022/12/20 09:13:11;;;;;;;10.30;1.50;;;;;;;;;;5038992;28;20018;-90
2022/12/20 09:15:37;;;;;;;8.52;1.50;;;;;;;;;;5030858;28;20377;-88
2022/12/20 09:18:02;;;;;;;3.05;1.52;;;;;;;;;;5024117;28;20025;-88
2022/12/20 09:20:27;;;;;;;6.85;1.58;;;;;;;;;;5033261;28;20080;-93
2022/12/20 09:22:53;;;;;;;4.07;1.45;;;;;;;;;;5029841;28;20071;-89
2022/12/20 09:25:18;;;;;;;4.22;1.55;;;;;;;;;;5031467;28;20064;-89
2022/12/20 09:27:44;;;;;;;3.35;1.60;;;;;;;;;;5046627;28;20052;-90
2022/12/20 09:30:09;;;;;;;5.30;1.08;;;;;;;;;;5045502;28;20025;-94
2022/12/20 09:32:34;;;;;;;3.20;1.45;;;;;;;;;;5039688;28;20105;-94
2022/12/20 09:34:59;;;;;;;3.35;1.38;;;;;;;;;;5033990;28;20477;-89
2022/12/20 09:37:25;;;;;;;4.32;1.42;;;;;;;;;;5027811;28;20029;-91
2022/12/20 09:39:50;;;;;;;3.38;1.40;;;;;;;;;;5029135;28;20029;-89
2022/12/20 09:42:16;;;;;;;3.13;1.50;;;;;;;;;;5036460;28;20484;-89
2022/12/20 09:44:42;;;;;;;5.45;1.65;;;;;;;;;;5037188;28;20009;-88
2022/12/20 09:47:14;;;;;;;2.20;1.35;;;;;;;;;;5030615;28;20017;-88
2022/12/20 09:49:39;;;;;;;;;;;;;;;;;;5048308;28;20025;-87
2022/12/20 09:52:21;;;;;;;6.57;1.75;;;;;;;;;;5040753;28;19905;-87
2022/12/20 09:55:07;;;;;;;2.67;1.63;;;;;;;;;;5034023;28;20910;-89
2022/12/20 09:57:51;;;;;;;2.88;1.52;;;;;;;;;;5023232;28;20038;-88
2022/12/20 10:00:17;;;;;;;7.07;1.70;;;;;;;;;;5042911;28;20431;-87
2022/12/20 10:02:43;;;;;;;3.92;1.77;;;;;;;;;;5026046;28;20033;-89
2022/12/20 10:05:14;;;;;;;6.30;2.05;;;;;;;;;;5030695;28;20389;-89
2022/12/20 10:07:49;;;;;;;3.00;1.42;;;;;;;;;;5031054;28;20030;-89
2022/12/20 10:10:14;;;;;;;6.43;1.70;;;;;;;;;;5029128;28;20056;-88
2022/12/20 10:12:46;;;;;;;3.15;1.42;;;;;;;;;;5034302;28;20116;-87
2022/12/20 10:15:30;;;;;;;4.68;1.80;;;;;;;;;;5038441;28;20369;-91
2022/12/20 10:18:14;;;;;;;7.07;1.50;;;;;;;;;;5032896;28;20033;-89
2022/12/20 10:20:39;;;;;;;4.93;1.67;;;;;;;;;;5046727;28;20045;-89
2022/12/20 10:23:08;;;;;;;4.63;1.52;;;;;;;;;;5041185;28;20036;-87
2022/12/20 10:25:33;;;;;;;7.70;1.10;;;;;;;;;;5037594;28;20487;-90
2022/12/20 10:28:03;;;;;;;3.83;1.63;;;;;;;;;;5035006;28;20029;-88
2022/12/20 10:30:30;;;;;;;2.55;1.38;;;;;;;;;;5051222;28;20112;-88
2022/12/20 10:32:56;;;;;;;4.93;1.42;;;;;;;;;;5040760;28;20048;-89
2022/12/20 10:35:42;;;;;;;4.10;1.67;;;;;;;;;;5040431;28;20793;-89
2022/12/20 10:38:12;;;;;;;4.75;1.48;;;;;;;;;;5040445;28;20128;-90
2022/12/20 10:40:39;;;;;;;4.90;1.63;;;;;;;;;;5032315;28;20017;-89
2022/12/20 10:43:05;;;;;;;3.53;1.40;;;;;;;;;;5052704;28;20017;-89
2022/12/20 10:45:35;;;;;;;1.63;0.88;;;;;;;;;;5037312;28;20036;-87
2022/12/20 10:48:02;;;;;;;6.13;1.55;;;;;;;;;;5031529;28;20025;-89
2022/12/20 10:50:28;;;;;;;4.53;1.80;;;;;;;;;;5033917;28;20444;-88
2022/12/20 10:53:08;;;;;;;7.88;1.88;;;;;;;;;;5034321;28;20044;-90
2022/12/20 10:55:42;;;;;;;6.32;1.65;;;;;;;;;;5037951;28;20028;-89
2022/12/20 10:58:13;;;;;;;4.70;1.80;;;;;;;;;;5033714;28;20503;-88
2022/12/20 11:00:38;;;;;;;5.53;1.60;;;;;;;;;;5029756;28;20032;-88
2022/12/20 11:03:06;;;;;;;0.82;0.60;;;;;;;;;;5047888;28;20453;-88
2022/12/20 11:05:31;;;;;;;3.92;1.40;;;;;;;;;;5028011;28;20025;-88
2022/12/20 11:07:58;;;;;;;2.08;0.68;;;;;;;;;;5032423;28;20141;-88
2022/12/20 11:10:24;;;;;;;3.70;1.50;;;;;;;;;;5039570;28;20033;-88
2022/12/20 11:12:53;;;;;;;3.65;1.80;;;;;;;;;;5032299;28;20053;-87
2022/12/20 11:15:20;;;;;;;4.70;2.20;;;;;;;;;;5030420;28;20025;-91
2022/12/20 11:17:50;;;;;;;5.65;2.10;;;;;;;;;;5048021;28;20538;-90
2022/12/20 11:20:15;;;;;;;0.93;0.63;;;;;;;;;;5055056;28;20009;-88
2022/12/20 11:22:55;;;;;;;4.68;1.90;;;;;;;;;;5035630;28;20500;-90
2022/12/20 11:25:30;;;;;;;7.43;2.28;;;;;;;;;;5033910;28;20411;-86
2022/12/20 11:28:09;;;;;;;4.47;2.00;;;;;;;;;;5034979;28;20029;-90
2022/12/20 11:30:46;;;;;;;5.13;1.88;;;;;;;;;;5028705;28;20045;-89
2022/12/20 11:33:29;;;;;;;7.18;1.98;;;;;;;;;;5028129;28;20393;-87
2022/12/20 11:36:07;;;;;;;6.78;1.98;;;;;;;;;;5049681;28;20099;-88
2022/12/20 11:38:35;;;;;;;6.50;2.72;;;;;;;;;;5026984;28;20368;-90
2022/12/20 11:41:17;;;;;;;4.78;2.38;;;;;;;;;;5050280;28;20029;-87
2022/12/20 11:43:48;;;;;;;4.35;2.05;;;;;;;;;;5057321;28;20028;-87
2022/12/20 11:46:32;;;;;;;4.03;2.27;;;;;;;;;;5054588;28;20374;-88
2022/12/20 11:49:30;;;;;;;5.68;2.50;;;;;;;;;;5045853;28;20021;-87
2022/12/20 11:52:13;;;;;;;8.70;2.88;;;;;;;;;;5045002;28;20032;-90
2022/12/20 11:54:42;;;;;;;6.75;2.42;;;;;;;;;;5047709;28;20109;-88
2022/12/20 11:57:15;;;;;;;7.53;2.80;;;;;;;;;;5033147;28;20056;-92
2022/12/20 11:59:46;;;;;;;7.95;2.90;;;;;;;;;;5039781;28;20032;-89
2022/12/20 12:02:13;;;;;;;12.45;3.22;;;;;;;;;;5041431;28;20127;-88
2022/12/20 12:04:49;;;;;;;6.57;3.30;;;;;;;;;;5045947;28;20021;-91
2022/12/20 12:07:17;;;;;;;8.25;2.85;;;;;;;;;;5030116;28;20021;-89
2022/12/20 12:09:51;;;;;;;6.72;3.30;;;;;;;;;;5030641;28;20018;-88
2022/12/20 12:12:36;;;;;;;8.00;2.67;;;;;;;;;;5039939;28;20027;-87
2022/12/20 12:15:14;;;;;;;9.07;3.13;;;;;;;;;;5015471;28;20042;-91
2022/12/20 12:17:39;;;;;;;6.13;2.90;;;;;;;;;;5045454;28;20477;-89
2022/12/20 12:20:19;;;;;;;6.32;3.00;;;;;;;;;;5047499;28;20025;-89
2022/12/20 12:22:45;;;;;;;7.00;2.65;;;;;;;;;;5031855;28;20018;-90
2022/12/20 12:25:14;;;;;;;6.00;2.83;;;;;;;;;;5031722;28;20120;-90
2022/12/20 12:27:39;;;;;;;7.88;2.50;;;;;;;;;;5022136;28;20022;-91
2022/12/20 12:30:05;;;;;;;7.55;2.83;;;;;;;;;;5034639;28;20208;-88
2022/12/20 12:32:33;;;;;;;6.43;1.58;;;;;;;;;;5033475;28;20044;-90
2022/12/20 12:35:02;;;;;;;10.90;2.78;;;;;;;;;;5032021;28;20036;-89
2022/12/20 12:37:36;;;;;;;8.60;3.13;;;;;;;;;;5032378;28;20032;-89
2022/12/20 12:40:14;;;;;;;8.65;2.92;;;;;;;;;;5049055;28;20454;-90
2022/12/20 12:42:58;;;;;;;5.88;2.65;;;;;;;;;;5049096;28;20021;-89
2022/12/20 12:45:30;;;;;;;6.78;3.22;;;;;;;;;;5048363;28;20071;-89
2022/12/20 12:47:55;;;;;;;6.20;2.80;;;;;;;;;;5033533;28;20017;-89
2022/12/20 12:50:20;;;;;;;10.38;2.92;;;;;;;;;;5033676;28;20018;-90
2022/12/20 12:52:49;;;;;;;4.65;2.65;;;;;;;;;;5032306;28;20017;-90
2022/12/20 12:55:33;;;;;;;9.07;2.63;;;;;;;;;;5048891;28;20535;-90
2022/12/20 12:58:11;;;;;;;6.45;2.60;;;;;;;;;;5031780;28;20147;-89
2022/12/20 13:00:48;;;;;;;5.50;2.45;;;;;;;;;;5048692;28;20053;-90
2022/12/20 13:03:15;;;;;;;9.38;2.50;;;;;;;;;;5032037;28;20014;-89
2022/12/20 13:05:40;;;;;;;4.72;2.47;;;;;;;;;;5032117;28;20029;-90
2022/12/20 13:08:14;;;;;;;8.35;2.78;;;;;;;;;;5032064;28;20160;-89
2022/12/20 13:10:39;;;;;;;9.32;3.00;;;;;;;;;;5033007;28;20424;-89
2022/12/20 13:13:11;;;;;;;5.07;2.50;;;;;;;;;;5048319;28;20068;-90
2022/12/20 13:15:39;;;;;;;10.60;3.13;;;;;;;;;;5048855;28;20029;-90
2022/12/20 13:18:07;;;;;;;11.35;2.60;;;;;;;;;;5033071;28;20477;-91
2022/12/20 13:20:34;;;;;;;12.55;3.08;;;;;;;;;;5033003;28;20017;-90
2022/12/20 13:23:17;;;;;;;6.38;2.92;;;;;;;;;;5031120;28;20017;-89
2022/12/20 13:25:44;;;;;;;6.20;2.83;;;;;;;;;;5032674;28;20025;-90
2022/12/20 13:28:18;;;;;;;5.13;3.17;;;;;;;;;;5048287;28;20525;-90
2022/12/20 13:30:47;;;;;;;5.97;2.67;;;;;;;;;;5031577;28;20485;-90
2022/12/20 13:33:16;;;;;;;10.32;3.13;;;;;;;;;;5047848;28;20112;-90
2022/12/20 13:36:00;;;;;;;8.27;2.60;;;;;;;;;;5025238;28;20071;-88
2022/12/20 13:38:31;;;;;;;8.18;2.90;;;;;;;;;;5033596;28;20473;-89
2022/12/20 13:40:57;;;;;;;6.25;3.30;;;;;;;;;;5036256;28;20018;-90
2022/12/20 13:43:28;;;;;;;9.73;3.20;;;;;;;;;;5037342;28;20021;-89
2022/12/20 13:45:56;;;;;;;7.35;3.22;;;;;;;;;;5041941;28;20121;-89
2022/12/20 13:48:25;;;;;;;11.93;3.15;;;;;;;;;;5021122;28;20044;-90
2022/12/20 13:50:54;;;;;;;7.63;2.70;;;;;;;;;;5028634;28;20021;-90
2022/12/20 13:53:21;;;;;;;5.50;2.72;;;;;;;;;;5031064;28;20368;-92
2022/12/20 13:55:47;;;;;;;7.88;3.22;;;;;;;;;;5028466;28;20037;-92
2022/12/20 13:58:16;;;;;;;7.07;3.70;;;;;;;;;;5031179;28;20017;-92
2022/12/20 14:00:41;;;;;;;9.85;3.20;;;;;;;;;;5032952;28;20069;-91
2022/12/20 14:03:16;;;;;;;12.02;3.45;;;;;;;;;;5048770;28;20037;-92
2022/12/20 14:05:41;;;;;;;7.60;3.20;;;;;;;;;;5036674;28;20022;-93
2022/12/20 14:08:18;;;;;;;8.05;3.30;;;;;;;;;;5022450;28;20028;-91
2022/12/20 14:10:43;;;;;;;10.05;3.72;;;;;;;;;;5028614;28;20046;-92
2022/12/20 14:13:21;;;;;;;8.85;3.53;;;;;;;;;;5032268;28;20056;-91
2022/12/20 14:15:47;;;;;;;11.75;4.35;;;;;;;;;;5030022;28;20113;-91
2022/12/20 14:18:19;;;;;;;10.13;3.75;;;;;;;;;;5029997;28;20501;-88
2022/12/20 14:20:47;;;;;;;7.60;4.10;;;;;;;;;;5041162;28;20023;-88
2022/12/20 14:23:17;;;;;;;7.75;3.70;;;;;;;;;;5031172;28;20480;-87
2022/12/20 14:25:46;;;;;;;5.13;2.08;;;;;;;;;;5046194;28;20052;-88
2022/12/20 14:28:30;;;;;;;9.68;3.65;;;;;;;;;;5017956;28;20022;-88
2022/12/20 14:30:56;;;;;;;5.75;2.90;;;;;;;;;;5032423;28;20025;-86
2022/12/20 14:33:29;;;;;;;6.40;3.47;;;;;;;;;;5027059;28;20044;-90
2022/12/20 14:35:55;;;;;;;6.55;3.40;;;;;;;;;;5021893;28;20492;-92
2022/12/20 14:38:22;;;;;;;8.63;3.45;;;;;;;;;;5030669;28;20022;-91
2022/12/20 14:40:47;;;;;;;7.88;3.20;;;;;;;;;;5029091;28;20037;-93
2022/12/20 14:43:13;;;;;;;16.58;4.28;;;;;;;;;;5023945;28;20014;-90
2022/12/20 14:45:39;;;;;;;7.05;3.40;;;;;;;;;;5027864;28;20017;-92
2022/12/20 14:48:06;;;;;;;7.43;4.15;;;;;;;;;;5023253;28;20021;-93
2022/12/20 14:50:35;;;;;;;7.60;3.33;;;;;;;;;;5029340;28;20099;-89
2022/12/20 14:53:01;;;;;;;17.00;5.07;;;;;;;;;;5029643;28;20029;-93
2022/12/20 14:55:26;;;;;;;9.55;3.85;;;;;;;;;;5041591;28;20034;-92
2022/12/20 14:57:52;;;;;;;4.70;3.40;;;;;;;;;;5031679;28;20018;-91